createdAt,value
2023-04-23T00:01:50.022Z,5.22
2023-04-23T00:04:24.875Z,3.55
2023-04-23T00:07:01.607Z,3.45
2023-04-23T00:09:34.904Z,5.22
2023-04-23T00:12:08.654Z,5.03
2023-04-23T00:14:42.526Z,5.10
2023-04-23T00:17:16.019Z,3.80
2023-04-23T00:19:49.114Z,4.72
2023-04-23T00:22:23.548Z,4.32
2023-04-23T00:24:56.455Z,4.00
2023-04-23T00:27:29.249Z,5.25
2023-04-23T00:30:03.300Z,4.35
2023-04-23T00:32:36.457Z,5.72
2023-04-23T00:35:09.800Z,5.90
2023-04-23T00:37:44.187Z,6.05
2023-04-23T00:40:17.325Z,5.60
2023-04-23T00:42:52.296Z,5.00
2023-04-23T00:45:25.610Z,6.40
2023-04-23T00:47:59.702Z,4.32
2023-04-23T00:50:32.708Z,4.05
2023-04-23T00:53:07.270Z,7.03
2023-04-23T00:55:40.439Z,8.05
2023-04-23T00:58:13.351Z,4.15
2023-04-23T01:00:48.682Z,5.88
2023-04-23T01:03:23.107Z,5.55
2023-04-23T01:05:56.325Z,6.47
2023-04-23T01:08:33.425Z,5.75
2023-04-23T01:11:06.663Z,4.72
2023-04-23T01:13:39.541Z,7.82
2023-04-23T01:16:12.817Z,6.38
2023-04-23T01:18:45.919Z,5.25
2023-04-23T01:21:20.298Z,4.22
2023-04-23T01:23:54.512Z,4.28
2023-04-23T01:26:27.792Z,4.53
2023-04-23T01:29:01.164Z,6.55
2023-04-23T01:31:34.450Z,5.25
2023-04-23T01:34:07.823Z,5.00
2023-04-23T01:36:42.389Z,10.50
2023-04-23T01:39:17.057Z,5.18
2023-04-23T01:41:50.242Z,6.22
2023-04-23T01:44:23.120Z,6.38
2023-04-23T01:46:57.763Z,4.80
2023-04-23T01:49:30.630Z,5.45
2023-04-23T01:52:03.931Z,5.65
2023-04-23T01:54:38.578Z,6.18
2023-04-23T01:57:11.957Z,6.82
2023-04-23T01:59:45.206Z,5.15
2023-04-23T02:02:18.165Z,8.95
2023-04-23T02:04:52.903Z,8.30
2023-04-23T02:07:25.869Z,8.27
2023-04-23T02:10:00.190Z,7.38
2023-04-23T02:12:33.037Z,5.03
2023-04-23T02:15:07.583Z,8.20
2023-04-23T02:17:40.681Z,6.63
2023-04-23T02:20:14.155Z,6.60
2023-04-23T02:22:47.876Z,7.45
2023-04-23T02:25:22.947Z,7.05
2023-04-23T02:27:57.439Z,5.18
2023-04-23T02:30:30.319Z,5.32
2023-04-23T02:33:03.763Z,4.95
2023-04-23T02:35:36.708Z,6.00
2023-04-23T02:38:09.631Z,4.70
2023-04-23T02:40:44.219Z,7.53
2023-04-23T02:43:18.179Z,7.90
2023-04-23T02:45:51.219Z,9.45
2023-04-23T02:48:26.084Z,9.13
2023-04-23T02:50:59.400Z,6.65
2023-04-23T02:53:32.240Z,5.30
2023-04-23T02:56:07.403Z,4.80
2023-04-23T02:58:40.805Z,7.93
2023-04-23T03:01:13.807Z,4.00
2023-04-23T03:03:47.228Z,7.07
2023-04-23T03:06:20.560Z,9.27
2023-04-23T03:08:53.550Z,4.82
2023-04-23T03:11:27.861Z,6.65
2023-04-23T03:14:01.165Z,5.40
2023-04-23T03:16:34.358Z,5.85
2023-04-23T03:19:07.500Z,6.75
2023-04-23T03:21:40.832Z,8.52
2023-04-23T03:24:16.161Z,8.93
2023-04-23T03:26:50.420Z,8.38
2023-04-23T03:29:23.357Z,8.18
2023-04-23T03:31:56.701Z,9.00
2023-04-23T03:34:29.793Z,8.52
2023-04-23T03:37:02.681Z,10.23
2023-04-23T03:39:38.362Z,9.40
2023-04-23T03:42:13.176Z,9.30
2023-04-23T03:44:46.277Z,7.72
2023-04-23T03:47:19.378Z,8.23
2023-04-23T03:49:52.661Z,8.68
2023-04-23T03:52:26.349Z,7.82
2023-04-23T03:54:59.613Z,7.50
2023-04-23T03:57:39.409Z,9.05
2023-04-23T04:00:44.354Z,7.53
2023-04-23T04:03:17.613Z,7.25
2023-04-23T04:05:50.600Z,7.70
2023-04-23T04:08:24.334Z,6.80
2023-04-23T04:10:57.427Z,11.20
2023-04-23T04:13:31.549Z,7.68
2023-04-23T04:16:04.712Z,8.35
2023-04-23T04:18:39.331Z,7.07
2023-04-23T04:21:12.121Z,8.88
2023-04-23T04:23:45.717Z,6.28
2023-04-23T04:26:19.029Z,7.13
2023-04-23T04:28:53.331Z,8.77
2023-04-23T04:31:28.391Z,7.32
2023-04-23T04:34:01.857Z,8.30
2023-04-23T04:36:35.670Z,6.53
2023-04-23T04:39:09.069Z,8.60
2023-04-23T04:41:42.989Z,6.50
2023-04-23T04:44:17.427Z,6.03
2023-04-23T04:46:50.230Z,6.53
2023-04-23T04:49:23.451Z,6.65
2023-04-23T04:51:56.337Z,9.43
2023-04-23T04:54:29.330Z,6.13
2023-04-23T04:57:02.401Z,12.88
2023-04-23T04:59:36.832Z,6.70
2023-04-23T05:02:09.681Z,6.03
2023-04-23T05:04:42.780Z,6.93
2023-04-23T05:07:15.823Z,6.20
2023-04-23T05:09:48.669Z,7.93
2023-04-23T05:12:21.890Z,6.85
2023-04-23T05:14:56.044Z,9.57
2023-04-23T05:17:29.102Z,6.25
2023-04-23T05:20:02.215Z,5.07
2023-04-23T05:22:35.178Z,7.88
2023-04-23T05:25:09.497Z,6.43
2023-04-23T05:27:42.566Z,4.90
2023-04-23T05:30:17.955Z,4.80
2023-04-23T05:32:51.561Z,6.25
2023-04-23T05:35:24.384Z,5.53
2023-04-23T05:37:57.290Z,5.95
2023-04-23T05:40:30.260Z,4.47
2023-04-23T05:43:03.753Z,8.55
2023-04-23T05:45:38.082Z,4.22
2023-04-23T05:48:10.969Z,5.88
2023-04-23T05:50:43.825Z,4.85
2023-04-23T05:53:16.707Z,4.97
2023-04-23T05:55:49.435Z,4.55
2023-04-23T05:58:22.289Z,4.97
2023-04-23T06:00:57.831Z,6.90
2023-04-23T06:03:31.379Z,6.40
2023-04-23T06:06:04.627Z,6.03
2023-04-23T06:08:37.561Z,6.57
2023-04-23T06:11:10.461Z,5.80
2023-04-23T06:13:44.062Z,6.18
2023-04-23T06:16:18.371Z,6.03
2023-04-23T06:18:51.313Z,5.65
2023-04-23T06:21:24.322Z,5.53
2023-04-23T06:23:57.145Z,8.68
2023-04-23T06:26:31.141Z,6.95
2023-04-23T06:31:51.720Z,5.63
2023-04-23T06:34:24.666Z,5.97
2023-04-23T06:40:00.446Z,5.82
2023-04-23T06:42:33.242Z,7.85
2023-04-23T06:45:24.722Z,10.85
2023-04-23T06:47:58.951Z,6.55
2023-04-23T06:50:31.792Z,7.32
2023-04-23T06:53:04.511Z,5.60
2023-04-23T06:55:37.319Z,4.65
2023-04-23T06:58:11.895Z,7.72
2023-04-23T07:00:45.789Z,5.13
2023-04-23T07:03:20.653Z,4.53
2023-04-23T07:05:53.584Z,4.43
2023-04-23T07:08:26.626Z,4.57
2023-04-23T07:10:59.598Z,6.03
2023-04-23T07:13:32.436Z,5.13
2023-04-23T07:16:05.425Z,4.15
2023-04-23T07:18:39.633Z,5.63
2023-04-23T07:21:12.527Z,3.58
2023-04-23T07:23:45.367Z,4.82
2023-04-23T07:26:18.280Z,5.72
2023-04-23T07:28:52.806Z,4.57
2023-04-23T07:31:26.208Z,4.03
2023-04-23T07:34:01.325Z,4.10
2023-04-23T07:36:34.269Z,4.32
2023-04-23T07:39:07.684Z,4.38
2023-04-23T07:41:41.066Z,5.80
2023-04-23T07:44:13.955Z,4.50
2023-04-23T07:46:46.843Z,3.38
2023-04-23T07:49:20.981Z,3.35
2023-04-23T07:51:53.810Z,2.40
2023-04-23T07:54:27.078Z,3.63
2023-04-23T07:56:59.973Z,3.15
2023-04-23T07:59:32.761Z,3.15
2023-04-23T08:02:05.806Z,3.47
2023-04-23T08:04:40.119Z,4.75
2023-04-23T08:07:13.124Z,3.95
2023-04-23T08:09:46.866Z,3.28
2023-04-23T08:12:21.158Z,2.10
2023-04-23T08:14:53.926Z,2.70
2023-04-23T08:17:32.218Z,2.38
2023-04-23T08:20:07.780Z,2.58
2023-04-23T08:22:40.865Z,4.22
2023-04-23T08:25:13.839Z,4.10
2023-04-23T08:27:46.696Z,3.03
2023-04-23T08:30:19.581Z,3.08
2023-04-23T08:32:54.682Z,2.47
2023-04-23T08:35:29.298Z,4.45
2023-04-23T08:38:02.185Z,2.50
2023-04-23T08:40:37.717Z,1.75
2023-04-23T08:43:14.494Z,2.25
2023-04-23T08:45:48.776Z,3.17
2023-04-23T08:48:22.332Z,2.35
2023-04-23T08:50:58.771Z,3.80
2023-04-23T08:53:32.732Z,3.90
2023-04-23T08:56:07.878Z,5.00
2023-04-23T08:58:41.496Z,2.45
2023-04-23T09:01:15.164Z,3.75
2023-04-23T09:03:48.425Z,3.42
2023-04-23T09:06:23.058Z,3.05
2023-04-23T09:08:57.031Z,3.25
2023-04-23T09:11:31.090Z,2.47
2023-04-23T09:14:04.919Z,3.53
2023-04-23T09:16:38.167Z,4.95
2023-04-23T09:19:12.369Z,2.85
2023-04-23T09:21:47.648Z,3.90
2023-04-23T09:24:23.440Z,3.20
2023-04-23T09:26:56.927Z,3.63
2023-04-23T09:29:30.042Z,3.80
2023-04-23T09:32:08.858Z,2.58
2023-04-23T09:34:41.798Z,3.38
2023-04-23T09:37:19.816Z,3.13
2023-04-23T09:39:56.440Z,2.08
2023-04-23T09:42:29.927Z,2.72
2023-04-23T09:45:06.724Z,4.65
2023-04-23T09:47:41.258Z,3.67
2023-04-23T09:50:14.294Z,3.95
2023-04-23T09:52:55.446Z,4.40
2023-04-23T09:55:30.852Z,3.95
2023-04-23T09:58:04.580Z,2.20
2023-04-23T10:00:39.685Z,1.92
2023-04-23T10:03:12.901Z,2.53
2023-04-23T10:06:00.353Z,2.50
2023-04-23T10:08:36.434Z,2.67
2023-04-23T10:11:19.830Z,2.63
2023-04-23T10:13:55.055Z,3.63
2023-04-23T10:16:35.600Z,2.67
2023-04-23T10:19:16.070Z,2.00
2023-04-23T10:21:56.100Z,1.83
2023-04-23T10:24:34.273Z,1.80
2023-04-23T10:27:21.940Z,1.80
2023-04-23T10:30:00.382Z,2.78
2023-04-23T10:32:34.725Z,2.65
2023-04-23T10:35:09.538Z,2.17
2023-04-23T10:37:43.453Z,2.15
2023-04-23T10:40:26.570Z,3.38
2023-04-23T10:43:00.862Z,3.30
2023-04-23T10:45:33.761Z,2.35
2023-04-23T10:48:08.619Z,1.42
2023-04-23T10:50:58.535Z,2.33
2023-04-23T10:53:37.016Z,1.85
2023-04-23T10:56:11.329Z,1.77
2023-04-23T10:58:51.871Z,2.45
2023-04-23T11:01:26.910Z,1.40
2023-04-23T11:04:00.464Z,1.10
2023-04-23T11:06:52.661Z,2.22
2023-04-23T11:09:50.400Z,1.75
2023-04-23T11:12:34.283Z,2.58
2023-04-23T11:15:14.836Z,1.60
2023-04-23T11:18:01.475Z,2.03
2023-04-23T11:20:36.908Z,2.05
2023-04-23T11:23:30.013Z,2.45
2023-04-23T11:26:04.436Z,1.98
2023-04-23T11:28:42.586Z,4.05
2023-04-23T11:31:19.128Z,4.50
2023-04-23T11:33:52.160Z,1.98
2023-04-23T11:36:25.991Z,1.83
2023-04-23T11:38:58.956Z,3.20
2023-04-23T11:41:32.188Z,1.13
2023-04-23T11:44:06.855Z,1.25
2023-04-23T11:46:40.160Z,1.17
2023-04-23T11:49:13.364Z,2.15
2023-04-23T11:51:46.793Z,0.98
2023-04-23T11:54:27.579Z,2.50
2023-04-23T11:57:00.572Z,1.35
2023-04-23T11:59:35.396Z,2.05
2023-04-23T12:02:08.341Z,2.53
2023-04-23T12:04:41.476Z,1.20
2023-04-23T12:07:25.920Z,2.65
2023-04-23T12:10:01.076Z,1.20
2023-04-23T12:12:35.081Z,1.38
2023-04-23T12:15:10.277Z,1.58
2023-04-23T12:17:43.195Z,1.90
2023-04-23T12:20:19.287Z,2.15
2023-04-23T12:22:52.171Z,3.85
2023-04-23T12:25:25.198Z,1.42
2023-04-23T12:28:00.802Z,1.75
2023-04-23T12:30:36.454Z,1.45
2023-04-23T12:33:12.650Z,1.65
2023-04-23T12:35:46.977Z,1.65
2023-04-23T12:38:24.680Z,2.47
2023-04-23T12:41:00.132Z,1.35
2023-04-23T12:43:33.004Z,1.42
2023-04-23T12:46:07.528Z,1.15
2023-04-23T12:48:40.417Z,0.95
2023-04-23T12:51:13.218Z,2.42
2023-04-23T12:53:46.039Z,1.60
2023-04-23T12:56:18.819Z,1.15
2023-04-23T12:58:51.624Z,2.13
2023-04-23T13:01:25.758Z,2.28
2023-04-23T13:03:58.706Z,0.82
2023-04-23T13:06:31.558Z,2.17
2023-04-23T13:09:05.377Z,1.48
2023-04-23T13:11:39.138Z,1.23
2023-04-23T13:14:12.049Z,3.97
2023-04-23T13:16:46.469Z,0.73
2023-04-23T13:19:22.078Z,2.03
2023-04-23T13:21:55.103Z,1.75
2023-04-23T13:24:28.085Z,2.15
2023-04-23T13:27:01.797Z,2.88
2023-04-23T13:29:34.814Z,1.67
2023-04-23T13:32:09.348Z,1.42
2023-04-23T13:34:42.536Z,1.70
2023-04-23T13:37:18.299Z,3.08
2023-04-23T13:39:51.320Z,1.17
2023-04-23T13:42:24.125Z,0.63
2023-04-23T13:44:57.139Z,3.15
2023-04-23T13:47:33.340Z,1.45
2023-04-23T13:50:07.456Z,1.48
2023-04-23T13:52:40.563Z,1.20
2023-04-23T13:55:13.522Z,1.15
2023-04-23T13:57:46.347Z,2.78
2023-04-23T14:00:19.490Z,0.60
2023-04-23T14:02:53.851Z,1.58
2023-04-23T14:05:26.700Z,2.45
2023-04-23T14:07:59.644Z,0.60
2023-04-23T14:10:32.612Z,0.50
2023-04-23T14:13:05.592Z,1.40
2023-04-23T14:15:38.529Z,1.52
2023-04-23T14:18:12.942Z,1.05
2023-04-23T14:20:45.924Z,0.90
2023-04-23T14:23:45.798Z,1.20
2023-04-23T14:26:37.026Z,1.25
2023-04-23T14:29:25.155Z,3.60
2023-04-23T14:31:58.234Z,3.08
2023-04-23T14:34:35.076Z,1.20
2023-04-23T14:37:08.967Z,1.65
2023-04-23T14:39:42.361Z,1.80
2023-04-23T14:42:15.677Z,1.15
2023-04-23T14:44:48.783Z,0.82
2023-04-23T14:47:21.657Z,2.65
2023-04-23T14:49:57.545Z,0.98
2023-04-23T14:52:31.829Z,1.40
2023-04-23T14:55:05.086Z,1.25
2023-04-23T14:57:38.127Z,1.27
2023-04-23T15:00:13.349Z,1.08
2023-04-23T15:02:46.916Z,2.97
2023-04-23T15:05:21.654Z,2.25
2023-04-23T15:07:54.405Z,1.95
2023-04-23T15:10:27.447Z,1.58
2023-04-23T15:13:07.978Z,0.40
2023-04-23T15:15:45.742Z,0.93
2023-04-23T15:18:20.616Z,0.60
2023-04-23T15:20:55.291Z,1.27
2023-04-23T15:23:28.116Z,1.95
2023-04-23T15:26:01.055Z,0.70
2023-04-23T15:28:34.001Z,1.95
2023-04-23T15:31:06.795Z,1.25
2023-04-23T15:33:41.069Z,1.23
2023-04-23T15:36:15.280Z,1.55
2023-04-23T15:38:48.074Z,1.27
2023-04-23T15:41:21.052Z,0.55
2023-04-23T15:43:55.239Z,2.22
2023-04-23T15:46:28.201Z,1.30
2023-04-23T15:49:01.216Z,2.45
2023-04-23T15:51:35.562Z,2.10
2023-04-23T15:54:09.178Z,0.95
2023-04-23T15:56:41.976Z,1.67
2023-04-23T15:59:14.808Z,1.60
2023-04-23T16:01:48.008Z,1.25
2023-04-23T16:04:21.120Z,1.15
2023-04-23T16:06:55.517Z,2.28
2023-04-23T16:09:28.602Z,2.22
2023-04-23T16:12:01.435Z,1.23
2023-04-23T16:14:34.398Z,0.57
2023-04-23T16:17:07.354Z,1.98
2023-04-23T16:19:40.818Z,0.85
2023-04-23T16:22:17.420Z,1.13
2023-04-23T16:24:50.987Z,1.85
2023-04-23T16:27:24.535Z,0.98
2023-04-23T16:29:57.944Z,1.10
2023-04-23T16:32:31.365Z,3.83
2023-04-23T16:35:04.732Z,0.77
2023-04-23T16:37:39.151Z,0.63
2023-04-23T16:40:15.288Z,0.98
2023-04-23T16:42:48.882Z,1.25
2023-04-23T16:45:23.283Z,1.35
2023-04-23T16:47:56.533Z,2.30
2023-04-23T16:50:29.396Z,1.63
2023-04-23T16:53:04.072Z,0.88
2023-04-23T16:55:38.256Z,0.70
2023-04-23T16:58:11.242Z,0.70
2023-04-23T17:00:45.029Z,2.45
2023-04-23T17:03:17.978Z,1.23
2023-04-23T17:05:56.017Z,0.95
2023-04-23T17:08:30.878Z,1.35
2023-04-23T17:11:04.113Z,1.60
2023-04-23T17:13:36.963Z,1.80
2023-04-23T17:16:09.997Z,1.88
2023-04-23T17:18:42.804Z,1.95
2023-04-23T17:21:16.738Z,2.00
2023-04-23T17:23:51.000Z,2.83
2023-04-23T17:26:23.850Z,1.50
2023-04-23T17:28:56.784Z,1.20
2023-04-23T17:31:30.026Z,1.38
2023-04-23T17:34:02.947Z,2.15
2023-04-23T17:36:36.005Z,3.38
2023-04-23T17:39:10.282Z,3.38
2023-04-23T17:46:01.998Z,3.75
2023-04-23T17:48:35.027Z,1.83
2023-04-23T17:51:10.974Z,1.65
2023-04-23T17:54:28.909Z,3.33
2023-04-23T17:57:04.028Z,10.35
2023-04-23T17:59:37.005Z,3.90
2023-04-23T18:02:10.474Z,1.20
2023-04-23T18:04:43.490Z,2.85
2023-04-23T18:07:16.394Z,2.22
2023-04-23T18:09:49.678Z,6.43
2023-04-23T18:12:24.522Z,2.53
2023-04-23T18:14:57.627Z,6.72
2023-04-23T18:17:30.847Z,1.92
2023-04-23T18:20:04.875Z,3.45
2023-04-23T18:22:38.406Z,2.38
2023-04-23T18:25:12.868Z,2.63
2023-04-23T18:27:47.172Z,2.58
2023-04-23T18:30:23.122Z,2.60
2023-04-23T18:33:01.466Z,2.13
2023-04-23T18:35:34.571Z,1.85
2023-04-23T18:38:12.340Z,1.83
2023-04-23T18:40:45.175Z,3.05
2023-04-23T18:43:20.156Z,2.42
2023-04-23T18:45:53.251Z,2.78
2023-04-23T18:48:42.446Z,2.65
2023-04-23T18:51:21.327Z,2.40
2023-04-23T18:53:54.341Z,3.22
2023-04-23T18:56:27.237Z,2.90
2023-04-23T18:59:01.455Z,3.92
2023-04-23T19:01:34.477Z,1.58
2023-04-23T19:04:07.558Z,1.38
2023-04-23T19:06:40.882Z,1.60
2023-04-23T19:09:14.051Z,2.40
2023-04-23T19:11:46.819Z,4.65
2023-04-23T19:14:20.994Z,5.10
2023-04-23T19:16:54.520Z,1.75
2023-04-23T19:19:31.169Z,4.53
2023-04-23T19:22:04.212Z,2.90
2023-04-23T19:24:37.179Z,3.85
2023-04-23T19:27:10.016Z,2.38
2023-04-23T19:29:44.602Z,4.32
2023-04-23T19:32:17.762Z,3.42
2023-04-23T19:34:50.725Z,2.00
2023-04-23T19:37:23.918Z,1.42
2023-04-23T19:39:56.728Z,10.05
2023-04-23T19:42:32.226Z,1.77
2023-04-23T19:45:07.618Z,1.45
2023-04-23T19:47:40.652Z,4.13
2023-04-23T19:50:14.209Z,1.17
2023-04-23T19:52:47.208Z,1.58
2023-04-23T19:55:22.300Z,1.90
2023-04-23T19:57:55.978Z,1.17
2023-04-23T20:00:31.264Z,1.52
2023-04-23T20:03:04.283Z,1.40
2023-04-23T20:05:37.564Z,3.88
2023-04-23T20:08:15.397Z,1.42
2023-04-23T20:10:48.726Z,3.38
2023-04-23T20:13:21.819Z,3.47
2023-04-23T20:15:56.044Z,6.43
2023-04-23T20:18:34.235Z,3.13
2023-04-23T20:21:07.734Z,5.30
2023-04-23T20:23:40.565Z,3.08
2023-04-23T20:26:14.360Z,3.42
2023-04-23T20:28:48.345Z,1.23
2023-04-23T20:31:22.737Z,2.03
2023-04-23T20:33:56.156Z,1.92
2023-04-23T20:36:31.548Z,2.65
2023-04-23T20:39:05.500Z,1.38
2023-04-23T20:41:38.470Z,2.25
2023-04-23T20:44:12.242Z,1.23
2023-04-23T20:46:47.223Z,2.67
2023-04-23T20:49:20.654Z,2.47
2023-04-23T20:51:54.050Z,3.08
2023-04-23T20:54:26.893Z,1.77
2023-04-23T20:56:59.724Z,2.17
2023-04-23T20:59:32.506Z,2.35
2023-04-23T21:02:07.712Z,2.50
2023-04-23T21:04:40.740Z,1.60
2023-04-23T21:07:13.757Z,2.45
2023-04-23T21:09:46.542Z,4.82
2023-04-23T21:12:19.423Z,2.38
2023-04-23T21:14:52.287Z,1.35
2023-04-23T21:17:26.525Z,1.85
2023-04-23T21:19:59.462Z,1.95
2023-04-23T21:22:32.858Z,2.83
2023-04-23T21:25:06.419Z,1.60
2023-04-23T21:27:39.678Z,2.50
2023-04-23T21:30:19.837Z,3.13
2023-04-23T21:32:54.360Z,3.00
2023-04-23T21:35:27.212Z,2.90
2023-04-23T21:37:59.931Z,3.08
2023-04-23T21:40:34.434Z,1.30
2023-04-23T21:43:08.154Z,2.42
2023-04-23T21:45:41.214Z,4.10
2023-04-23T21:48:15.350Z,3.22
2023-04-23T21:50:49.768Z,1.15
2023-04-23T21:53:22.621Z,1.92
2023-04-23T21:55:55.637Z,3.35
2023-04-23T21:58:29.352Z,1.83
2023-04-23T22:01:02.219Z,1.80
2023-04-23T22:03:39.371Z,2.17
2023-04-23T22:06:12.876Z,1.73
2023-04-23T22:08:46.580Z,1.88
2023-04-23T22:11:19.685Z,2.10
2023-04-23T22:13:52.591Z,2.25
2023-04-23T22:16:28.865Z,1.83
2023-04-23T22:19:03.728Z,1.77
2023-04-23T22:21:36.597Z,1.77
2023-04-23T22:24:09.469Z,0.80
2023-04-23T22:26:42.353Z,3.85
2023-04-23T22:29:15.297Z,1.38
2023-04-23T22:31:48.168Z,2.40
2023-04-23T22:34:22.356Z,1.55
2023-04-23T22:36:55.133Z,2.00
2023-04-23T22:39:27.940Z,2.38
2023-04-23T22:42:01.065Z,0.88
2023-04-23T22:44:33.855Z,1.02
2023-04-23T22:47:07.120Z,1.60
2023-04-23T22:49:42.076Z,1.38
2023-04-23T22:52:15.885Z,1.63
2023-04-23T22:54:48.758Z,1.42
2023-04-23T22:57:21.737Z,2.33
2023-04-23T22:59:54.639Z,1.20
2023-04-23T23:02:27.489Z,1.73
2023-04-23T23:05:02.125Z,1.20
2023-04-23T23:07:34.903Z,1.10
2023-04-23T23:10:09.631Z,1.73
2023-04-23T23:12:42.465Z,2.70
2023-04-23T23:15:15.312Z,1.90
2023-04-23T23:17:48.117Z,1.55
2023-04-23T23:20:22.665Z,2.70
2023-04-23T23:22:55.501Z,2.90
2023-04-23T23:25:28.315Z,3.47
2023-04-23T23:28:01.085Z,1.02
2023-04-23T23:30:33.933Z,2.50
2023-04-23T23:33:07.255Z,1.45
2023-04-23T23:35:43.547Z,1.48
2023-04-23T23:38:16.550Z,2.08
2023-04-23T23:40:49.341Z,1.27
2023-04-23T23:43:22.096Z,2.25
2023-04-23T23:45:54.932Z,2.78
2023-04-23T23:48:27.985Z,1.23
2023-04-23T23:51:02.235Z,1.70
2023-04-23T23:53:35.078Z,2.58
2023-04-23T23:56:08.064Z,2.58
2023-04-23T23:58:40.890Z,1.42
